Time;durP1;ratioP1;P1;durP2;ratioP2;P2;SDS_P1;SDS_P2;PMS_P1;PMS_P2;Temp;Humidity;BMP_temperature;BMP_pressure;BME280_temperature;BME280_humidity;BME280_pressure;Samples;Min_cycle;Max_cycle;Signal;HPM_P1;HPM_P2
2023/06/25 00:01:57;;;;;;;11.85;10.05;;;22.10;95.90;;;;;;6272469;22;19999;-73
2023/06/25 00:04:22;;;;;;;10.50;9.50;;;22.10;96.10;;;;;;6272624;22;20397;-73
2023/06/25 00:06:48;;;;;;;11.43;10.32;;;22.10;96.20;;;;;;6272857;22;20008;-74
2023/06/25 00:09:14;;;;;;;11.88;10.68;;;22.10;96.30;;;;;;6245188;22;20007;-74
2023/06/25 00:11:39;;;;;;;12.20;11.02;;;22.00;96.30;;;;;;6271560;22;20003;-74
2023/06/25 00:14:05;;;;;;;12.77;10.15;;;22.00;96.70;;;;;;6270340;22;20271;-73
2023/06/25 00:16:33;;;;;;;10.13;9.23;;;22.00;96.50;;;;;;6271728;22;20023;-74
2023/06/25 00:19:00;;;;;;;12.02;11.02;;;22.00;96.50;;;;;;6244611;22;20057;-74
2023/06/25 00:21:26;;;;;;;12.15;11.02;;;22.00;96.70;;;;;;6244772;22;20393;-73
2023/06/25 00:23:51;;;;;;;11.43;10.30;;;22.00;96.80;;;;;;6272463;22;19996;-73
2023/06/25 00:26:17;;;;;;;11.27;10.18;;;21.90;96.90;;;;;;6271366;22;20018;-73
2023/06/25 00:28:43;;;;;;;12.07;10.95;;;21.90;97.00;;;;;;6272511;22;20421;-74
2023/06/25 00:31:08;;;;;;;11.10;10.00;;;21.90;97.00;;;;;;6272130;22;19999;-73
2023/06/25 00:33:34;;;;;;;13.05;10.57;;;21.90;97.10;;;;;;6272359;22;19999;-74
2023/06/25 00:36:11;;;;;;;12.82;11.63;;;21.90;97.20;;;;;;6272112;22;20004;-74
2023/06/25 00:38:38;;;;;;;12.18;10.38;;;21.90;97.30;;;;;;6244350;22;20316;-73
2023/06/25 00:41:11;;;;;;;12.77;11.18;;;21.90;97.40;;;;;;6271755;22;20329;-74
2023/06/25 00:43:41;;;;;;;12.60;11.47;;;21.80;97.50;;;;;;6244991;22;20332;-73
2023/06/25 00:46:12;;;;;;;14.25;11.50;;;21.90;97.50;;;;;;6272184;22;20015;-73
2023/06/25 00:48:45;;;;;;;12.20;11.02;;;21.80;97.60;;;;;;6245155;22;20447;-73
2023/06/25 00:51:21;;;;;;;13.60;11.65;;;21.70;97.80;;;;;;6244695;22;20019;-74
2023/06/25 00:53:47;;;;;;;13.38;12.00;;;21.70;97.90;;;;;;6244627;22;20425;-74
2023/06/25 00:56:13;;;;;;;12.00;10.90;;;21.70;98.00;;;;;;6271791;22;20063;-74
2023/06/25 00:58:39;;;;;;;14.15;12.65;;;21.60;98.10;;;;;;6272072;22;20000;-74
2023/06/25 01:01:16;;;;;;;13.80;12.40;;;21.60;98.20;;;;;;6271460;22;20065;-73
2023/06/25 01:03:54;;;;;;;13.43;11.88;;;21.60;98.40;;;;;;6272479;22;20027;-73
2023/06/25 01:06:29;;;;;;;13.18;11.95;;;21.60;98.40;;;;;;6272143;22;20364;-73
2023/06/25 01:08:59;;;;;;;15.68;14.15;;;21.60;98.50;;;;;;6271317;22;19996;-73
2023/06/25 01:11:25;;;;;;;13.88;12.50;;;21.50;98.60;;;;;;6272674;22;20023;-73
2023/06/25 01:13:50;;;;;;;14.80;13.35;;;21.50;98.70;;;;;;6272151;22;19996;-73
2023/06/25 01:16:16;;;;;;;13.30;11.90;;;21.50;98.80;;;;;;6244347;22;20004;-73
2023/06/25 01:18:41;;;;;;;15.30;13.70;;;21.50;98.90;;;;;;6272200;22;19995;-73
2023/06/25 01:21:09;;;;;;;14.70;13.20;;;21.50;99.10;;;;;;6271643;22;20002;-73
2023/06/25 01:23:35;;;;;;;14.82;13.43;;;21.50;99.30;;;;;;6244104;22;20357;-73
2023/06/25 01:26:01;;;;;;;15.40;13.50;;;21.50;99.30;;;;;;6271371;22;20333;-73
2023/06/25 01:28:27;;;;;;;14.98;13.32;;;21.50;99.40;;;;;;6271837;22;19996;-73
2023/06/25 01:30:53;;;;;;;14.45;13.18;;;21.50;99.50;;;;;;6271440;22;20406;-73
2023/06/25 01:33:20;;;;;;;15.95;14.32;;;21.40;99.60;;;;;;6271684;22;20074;-73
2023/06/25 01:35:46;;;;;;;14.88;12.23;;;21.40;99.70;;;;;;6272201;22;20364;-73
2023/06/25 01:38:12;;;;;;;17.52;15.52;;;21.40;99.80;;;;;;6243760;22;20057;-72
2023/06/25 01:40:37;;;;;;;14.82;13.32;;;21.40;99.90;;;;;;6244596;22;20007;-73
2023/06/25 01:43:03;;;;;;;14.88;13.38;;;21.40;99.90;;;;;;6271490;22;20000;-73
2023/06/25 01:45:28;;;;;;;16.90;13.80;;;21.30;99.90;;;;;;6271574;22;20514;-73
2023/06/25 01:47:54;;;;;;;17.35;15.10;;;21.30;99.90;;;;;;6271461;22;20007;-74
2023/06/25 01:50:20;;;;;;;15.80;14.38;;;21.30;99.90;;;;;;6244563;22;19999;-74
2023/06/25 01:52:46;;;;;;;15.07;13.55;;;21.30;99.90;;;;;;6271439;22;19999;-74
2023/06/25 01:55:12;;;;;;;15.48;13.68;;;21.20;99.90;;;;;;6271452;22;20372;-73
2023/06/25 01:57:37;;;;;;;14.48;12.88;;;21.20;99.90;;;;;;6244558;22;20496;-74
2023/06/25 02:00:06;;;;;;;17.70;14.32;;;21.20;99.90;;;;;;6271011;22;20043;-73
2023/06/25 02:02:32;;;;;;;12.85;11.65;;;21.20;99.90;;;;;;6244442;22;20065;-73
2023/06/25 02:04:58;;;;;;;13.43;12.15;;;21.20;99.90;;;;;;6271118;22;20413;-73
2023/06/25 02:07:23;;;;;;;15.75;14.32;;;21.10;99.90;;;;;;6271089;22;20019;-73
2023/06/25 02:09:49;;;;;;;16.25;14.60;;;21.10;99.90;;;;;;6271777;22;20035;-73
2023/06/25 02:12:14;;;;;;;16.70;15.00;;;21.10;99.90;;;;;;6271328;22;20007;-73
2023/06/25 02:14:40;;;;;;;18.23;16.38;;;21.10;99.90;;;;;;6271846;22;20039;-73
2023/06/25 02:17:05;;;;;;;15.50;13.98;;;21.10;99.90;;;;;;6271238;22;20004;-73
2023/06/25 02:19:31;;;;;;;16.63;15.02;;;21.10;99.90;;;;;;6271754;22;20450;-73
2023/06/25 02:21:57;;;;;;;16.75;15.00;;;21.10;99.90;;;;;;6270730;22;20027;-73
2023/06/25 02:24:23;;;;;;;16.90;15.38;;;21.00;99.90;;;;;;6244412;22;20014;-74
2023/06/25 02:26:48;;;;;;;19.63;16.63;;;21.00;99.90;;;;;;6271779;22;20007;-74
2023/06/25 02:29:14;;;;;;;16.45;14.75;;;21.00;99.90;;;;;;6271739;22;20325;-73
2023/06/25 02:31:40;;;;;;;16.83;15.30;;;21.00;99.90;;;;;;6271570;22;20004;-73
2023/06/25 02:34:05;;;;;;;17.80;15.15;;;20.90;99.90;;;;;;6271303;22;20004;-73
2023/06/25 02:36:31;;;;;;;17.58;15.60;;;20.90;99.90;;;;;;6270965;22;20038;-73
2023/06/25 02:38:57;;;;;;;18.52;16.45;;;20.90;99.90;;;;;;6271191;22;20000;-73
2023/06/25 02:41:22;;;;;;;18.45;16.45;;;20.90;99.90;;;;;;6271414;22;20365;-73
2023/06/25 02:43:48;;;;;;;17.92;16.15;;;20.90;99.90;;;;;;6272917;22;20008;-74
2023/06/25 02:46:13;;;;;;;16.98;15.43;;;20.80;99.90;;;;;;6272880;22;20010;-72
2023/06/25 02:48:42;;;;;;;19.17;15.57;;;20.90;99.90;;;;;;6246056;22;20046;-72
2023/06/25 02:51:09;;;;;;;14.70;13.23;;;20.80;99.90;;;;;;6245173;22;20000;-72
2023/06/25 02:53:34;;;;;;;15.85;14.20;;;20.80;99.90;;;;;;6273346;22;20062;-72
2023/06/25 02:56:00;;;;;;;17.60;15.82;;;20.80;99.90;;;;;;6273050;22;20006;-72
2023/06/25 02:58:25;;;;;;;17.27;15.68;;;20.80;99.90;;;;;;6273313;22;20004;-73
2023/06/25 03:00:51;;;;;;;18.25;16.45;;;20.70;99.90;;;;;;6246222;22;20156;-72
2023/06/25 03:03:17;;;;;;;18.30;16.52;;;20.70;99.90;;;;;;6273082;22;20071;-72
2023/06/25 03:05:43;;;;;;;17.88;16.08;;;20.70;99.90;;;;;;6272870;22;20000;-72
2023/06/25 03:08:08;;;;;;;19.42;17.63;;;20.70;99.90;;;;;;6272921;22;20026;-72
2023/06/25 03:10:37;;;;;;;18.70;16.83;;;20.70;99.90;;;;;;6273483;22;20008;-72
2023/06/25 03:13:04;;;;;;;18.40;16.58;;;20.60;99.90;;;;;;6245492;22;20008;-72
2023/06/25 03:15:29;;;;;;;18.73;16.67;;;20.60;99.90;;;;;;6273175;22;20294;-72
2023/06/25 03:17:55;;;;;;;19.60;17.65;;;20.60;99.90;;;;;;6272781;22;20042;-72
2023/06/25 03:20:20;;;;;;;19.10;17.27;;;20.50;99.90;;;;;;6272654;22;20071;-72
2023/06/25 03:22:46;;;;;;;19.85;17.88;;;20.50;99.90;;;;;;6273218;22;20299;-72
2023/06/25 03:25:12;;;;;;;18.83;17.05;;;20.50;99.90;;;;;;6272570;22;20291;-72
2023/06/25 03:27:37;;;;;;;19.13;16.90;;;20.50;99.90;;;;;;6273029;22;20325;-73
2023/06/25 03:30:04;;;;;;;19.13;17.17;;;20.40;99.90;;;;;;6272593;22;19995;-72
2023/06/25 03:32:29;;;;;;;19.98;18.05;;;20.50;99.90;;;;;;6272999;22;20003;-72
2023/06/25 03:34:55;;;;;;;19.08;17.27;;;20.40;99.90;;;;;;6272244;22;20004;-72
2023/06/25 03:37:21;;;;;;;19.60;17.50;;;20.40;99.90;;;;;;6272884;22;20283;-73
2023/06/25 03:39:47;;;;;;;17.20;14.82;;;20.40;99.90;;;;;;6273148;22;20000;-72
2023/06/25 03:42:13;;;;;;;19.42;17.63;;;20.40;99.90;;;;;;6245296;22;20049;-73
2023/06/25 03:44:47;;;;;;;19.95;17.98;;;20.40;99.90;;;;;;6245521;22;20008;-72
2023/06/25 03:47:13;;;;;;;19.40;17.58;;;20.30;99.90;;;;;;6272003;22;20007;-72
2023/06/25 03:49:38;;;;;;;20.80;18.65;;;20.30;99.90;;;;;;6272836;22;20010;-72
2023/06/25 03:52:04;;;;;;;19.08;17.17;;;20.30;99.90;;;;;;6243774;22;20379;-72
2023/06/25 03:54:30;;;;;;;19.90;17.35;;;20.30;99.90;;;;;;6271890;22;20024;-73
2023/06/25 03:56:55;;;;;;;19.10;17.30;;;20.30;99.90;;;;;;6244034;22;20004;-72
2023/06/25 03:59:21;;;;;;;20.25;18.17;;;20.30;99.90;;;;;;6245046;22;20144;-72
2023/06/25 04:01:46;;;;;;;19.20;17.38;;;20.20;99.90;;;;;;6243884;22;20019;-73
2023/06/25 04:04:12;;;;;;;19.20;17.40;;;20.30;99.90;;;;;;6271848;22;20014;-72
2023/06/25 04:06:38;;;;;;;20.83;18.73;;;20.30;99.90;;;;;;6272353;22;20414;-72
2023/06/25 04:09:03;;;;;;;20.52;18.10;;;20.30;99.90;;;;;;6271172;22;20003;-72
2023/06/25 04:11:29;;;;;;;19.45;17.42;;;20.30;99.90;;;;;;6270878;22;20027;-72
2023/06/25 04:13:54;;;;;;;19.30;17.50;;;20.30;99.90;;;;;;6243445;22;20004;-73
2023/06/25 04:16:20;;;;;;;19.92;17.85;;;20.30;99.90;;;;;;6242995;22;20011;-72
2023/06/25 04:18:46;;;;;;;20.50;18.60;;;20.30;99.90;;;;;;6270595;22;20000;-72
2023/06/25 04:21:11;;;;;;;20.00;18.20;;;20.30;99.90;;;;;;6272227;22;20000;-72
2023/06/25 04:23:37;;;;;;;20.48;18.55;;;20.30;99.90;;;;;;6272304;22;20444;-72
2023/06/25 04:26:02;;;;;;;17.98;16.38;;;20.30;99.90;;;;;;6244817;22;20093;-73
2023/06/25 04:28:28;;;;;;;21.65;19.63;;;20.30;99.90;;;;;;6272385;22;20011;-72
2023/06/25 04:30:53;;;;;;;21.08;18.90;;;20.40;99.90;;;;;;6271976;22;20462;-72
2023/06/25 04:33:20;;;;;;;19.83;18.00;;;20.40;99.90;;;;;;6245129;22;20003;-72
2023/06/25 04:35:45;;;;;;;21.58;19.48;;;20.40;99.90;;;;;;6272874;22;20329;-72
2023/06/25 04:38:11;;;;;;;20.83;18.88;;;20.40;99.90;;;;;;6244865;22;19999;-72
2023/06/25 04:40:36;;;;;;;20.83;18.92;;;20.40;99.90;;;;;;6245036;22;20057;-72
2023/06/25 04:43:02;;;;;;;20.40;18.30;;;20.40;99.90;;;;;;6244769;22;20421;-72
2023/06/25 04:45:28;;;;;;;20.88;18.80;;;20.50;99.90;;;;;;6271751;22;20307;-72
2023/06/25 04:47:54;;;;;;;20.38;18.58;;;20.50;99.90;;;;;;6244713;22;19996;-72
2023/06/25 04:50:20;;;;;;;20.33;18.48;;;20.50;99.90;;;;;;6245369;22;20003;-73
2023/06/25 04:52:46;;;;;;;20.52;18.63;;;20.60;99.90;;;;;;6272621;22;20105;-72
2023/06/25 04:55:11;;;;;;;20.48;18.38;;;20.60;99.90;;;;;;6272246;22;20095;-72
2023/06/25 04:57:37;;;;;;;20.20;18.30;;;20.60;99.90;;;;;;6272807;22;20000;-72
2023/06/25 05:00:04;;;;;;;19.73;17.85;;;20.70;99.90;;;;;;6271272;22;20022;-72
2023/06/25 05:02:29;;;;;;;18.08;16.33;;;20.70;99.90;;;;;;6272150;22;20000;-72
2023/06/25 05:04:55;;;;;;;20.52;18.48;;;20.80;99.90;;;;;;6271961;22;20456;-72
2023/06/25 05:07:20;;;;;;;21.17;19.05;;;20.80;99.90;;;;;;6244013;22;20444;-73
2023/06/25 05:09:46;;;;;;;19.77;17.85;;;20.90;99.90;;;;;;6272236;22;20075;-71
2023/06/25 05:12:12;;;;;;;18.58;16.73;;;20.90;99.90;;;;;;6271819;22;20973;-72
2023/06/25 05:14:38;;;;;;;18.95;17.13;;;21.00;99.90;;;;;;6271571;22;20000;-72
2023/06/25 05:17:04;;;;;;;19.65;17.75;;;21.10;99.90;;;;;;6271798;22;20030;-72
2023/06/25 05:19:29;;;;;;;19.55;17.63;;;21.10;99.90;;;;;;6272120;22;20027;-72
2023/06/25 05:21:55;;;;;;;17.92;16.13;;;21.20;99.90;;;;;;6244685;22;20333;-72
2023/06/25 05:24:20;;;;;;;17.52;15.85;;;21.20;99.90;;;;;;6244689;22;20008;-72
2023/06/25 05:26:46;;;;;;;17.90;16.15;;;21.30;99.90;;;;;;6272093;22;20410;-72
2023/06/25 05:29:11;;;;;;;17.40;15.60;;;21.30;99.90;;;;;;6243960;22;20184;-72
2023/06/25 05:31:37;;;;;;;18.08;15.05;;;21.40;99.90;;;;;;6271937;22;20000;-72
2023/06/25 05:34:02;;;;;;;17.55;15.70;;;21.50;99.90;;;;;;6271552;22;20057;-72
2023/06/25 05:36:29;;;;;;;17.55;15.75;;;21.50;99.90;;;;;;6244784;22;20099;-72
2023/06/25 05:38:54;;;;;;;18.13;14.90;;;21.60;99.90;;;;;;6271511;22;19999;-72
2023/06/25 05:41:20;;;;;;;15.15;13.65;;;21.60;99.90;;;;;;6271751;22;20053;-71
2023/06/25 05:43:45;;;;;;;12.65;10.95;;;21.70;99.90;;;;;;6270932;22;20074;-72
2023/06/25 05:46:13;;;;;;;15.15;13.77;;;21.70;99.90;;;;;;6243215;22;20004;-72
2023/06/25 05:48:41;;;;;;;15.32;13.93;;;21.80;99.90;;;;;;6243907;22;20004;-72
2023/06/25 05:51:07;;;;;;;15.73;14.10;;;21.80;99.90;;;;;;6271655;22;20046;-72
2023/06/25 05:53:41;;;;;;;14.85;13.32;;;21.90;99.90;;;;;;6244555;22;20000;-72
2023/06/25 05:56:07;;;;;;;16.85;14.32;;;21.90;99.90;;;;;;6271386;22;20034;-73
2023/06/25 05:58:34;;;;;;;15.45;13.95;;;22.00;99.90;;;;;;6271439;22;20085;-71
2023/06/25 06:00:59;;;;;;;15.43;13.52;;;22.00;99.90;;;;;;6244050;22;20022;-72
2023/06/25 06:03:25;;;;;;;16.10;14.52;;;22.10;99.90;;;;;;6244763;22;20004;-72
2023/06/25 06:05:50;;;;;;;16.17;14.70;;;22.10;99.90;;;;;;6271738;22;20333;-72
2023/06/25 06:08:16;;;;;;;14.48;12.98;;;22.20;99.90;;;;;;6244302;22;20044;-72
2023/06/25 06:10:41;;;;;;;15.82;14.15;;;22.20;99.50;;;;;;6271924;22;20065;-71
2023/06/25 06:13:07;;;;;;;13.85;12.48;;;22.30;99.20;;;;;;6270781;22;20026;-73
2023/06/25 06:15:33;;;;;;;13.88;11.80;;;22.30;99.10;;;;;;6244554;22;20008;-72
2023/06/25 06:17:58;;;;;;;15.60;14.00;;;22.40;98.80;;;;;;6271922;22;20004;-72
2023/06/25 06:20:24;;;;;;;13.90;12.48;;;22.40;98.60;;;;;;6273668;22;20004;-71
2023/06/25 06:22:49;;;;;;;15.35;13.77;;;22.50;98.80;;;;;;6246708;22;20467;-72
2023/06/25 06:25:15;;;;;;;16.30;14.70;;;22.50;98.70;;;;;;6245937;22;20334;-72
2023/06/25 06:27:40;;;;;;;15.30;13.75;;;22.50;98.50;;;;;;6273321;22;20070;-72
2023/06/25 06:30:07;;;;;;;13.98;12.57;;;22.60;98.60;;;;;;6273110;22;20477;-72
2023/06/25 06:32:32;;;;;;;13.93;11.98;;;22.70;98.50;;;;;;6273597;22;20064;-72
2023/06/25 06:34:58;;;;;;;14.05;12.63;;;22.70;98.30;;;;;;6273275;22;20148;-72
2023/06/25 06:37:23;;;;;;;14.25;12.73;;;22.70;98.20;;;;;;6273687;22;20006;-72
2023/06/25 06:39:49;;;;;;;14.35;13.07;;;22.80;98.20;;;;;;6273653;22;20031;-72
2023/06/25 06:42:15;;;;;;;14.75;13.35;;;22.90;98.10;;;;;;6272696;22;20023;-72
2023/06/25 06:44:40;;;;;;;14.50;13.00;;;23.00;98.00;;;;;;6273867;22;20000;-71
2023/06/25 06:47:06;;;;;;;16.77;14.90;;;23.00;97.80;;;;;;6273324;22;20422;-72
2023/06/25 06:49:31;;;;;;;13.43;12.02;;;23.10;97.60;;;;;;6273466;22;20003;-72
2023/06/25 06:51:57;;;;;;;16.35;14.80;;;23.20;98.00;;;;;;6272989;22;20079;-72
2023/06/25 06:54:22;;;;;;;16.88;15.23;;;23.10;97.60;;;;;;6273119;22;19999;-72
2023/06/25 06:56:48;;;;;;;14.32;13.02;;;23.20;97.70;;;;;;6272756;22;20428;-71
2023/06/25 06:59:14;;;;;;;16.38;14.88;;;23.30;97.40;;;;;;6272951;22;20251;-72
2023/06/25 07:01:39;;;;;;;15.38;13.73;;;23.30;97.30;;;;;;6272806;22;20011;-71
2023/06/25 07:04:05;;;;;;;15.80;14.30;;;23.30;97.30;;;;;;6272805;22;20049;-72
2023/06/25 07:06:30;;;;;;;16.25;14.27;;;23.40;97.20;;;;;;6271670;22;20003;-72
2023/06/25 07:08:56;;;;;;;16.58;14.50;;;23.40;97.20;;;;;;6270182;22;20070;-73
2023/06/25 07:11:21;;;;;;;15.27;13.77;;;23.50;97.10;;;;;;6270582;22;20528;-72
2023/06/25 07:13:47;;;;;;;15.07;13.57;;;23.60;97.20;;;;;;6245641;22;20000;-72
2023/06/25 07:16:13;;;;;;;16.75;15.05;;;23.70;97.40;;;;;;6245474;22;20034;-72
2023/06/25 07:18:38;;;;;;;15.90;14.30;;;23.70;97.30;;;;;;6273138;22;20110;-73
2023/06/25 07:21:05;;;;;;;14.65;13.30;;;23.80;97.00;;;;;;6272798;22;20069;-71
2023/06/25 07:23:32;;;;;;;15.60;14.10;;;23.90;96.80;;;;;;6245991;22;20008;-71
2023/06/25 07:25:57;;;;;;;14.98;13.57;;;23.90;96.70;;;;;;6244966;22;20000;-72
2023/06/25 07:28:23;;;;;;;14.85;13.52;;;24.00;96.40;;;;;;6273004;22;19996;-72
2023/06/25 07:30:49;;;;;;;15.38;13.90;;;24.10;96.30;;;;;;6272667;22;20007;-71
2023/06/25 07:33:14;;;;;;;15.50;14.07;;;24.10;96.30;;;;;;6272737;22;20003;-72
2023/06/25 07:35:40;;;;;;;14.45;13.15;;;24.20;96.20;;;;;;6273438;22;20007;-72
2023/06/25 07:38:05;;;;;;;15.73;14.27;;;24.30;96.20;;;;;;6272870;22;19995;-71
2023/06/25 07:40:31;;;;;;;15.48;13.30;;;24.40;96.10;;;;;;6272210;22;20054;-72
2023/06/25 07:42:57;;;;;;;14.20;11.70;;;24.50;96.00;;;;;;6245550;22;20318;-72
2023/06/25 07:45:22;;;;;;;13.38;11.90;;;24.60;95.90;;;;;;6272219;22;20012;-72
2023/06/25 07:47:48;;;;;;;15.20;13.65;;;24.70;95.80;;;;;;6245661;22;20432;-71
2023/06/25 07:50:13;;;;;;;13.10;11.70;;;24.70;95.10;;;;;;6272870;22;20424;-71
2023/06/25 07:52:39;;;;;;;14.82;13.00;;;24.80;95.00;;;;;;6272585;22;20058;-72
2023/06/25 07:55:05;;;;;;;13.35;11.45;;;24.90;94.90;;;;;;6272075;22;20023;-72
2023/06/25 07:57:31;;;;;;;13.50;12.20;;;25.00;95.00;;;;;;6273011;22;20004;-72
2023/06/25 07:59:56;;;;;;;15.57;12.90;;;25.20;94.70;;;;;;6272382;22;20020;-71
2023/06/25 08:02:22;;;;;;;14.73;13.23;;;25.30;94.50;;;;;;6273005;22;20011;-72
2023/06/25 08:04:49;;;;;;;13.52;11.70;;;25.40;94.00;;;;;;6246370;22;20020;-71
2023/06/25 08:07:15;;;;;;;12.45;10.95;;;25.40;93.90;;;;;;6272888;22;20678;-73
2023/06/25 08:09:41;;;;;;;10.73;9.73;;;25.50;93.30;;;;;;6272250;22;20024;-74
2023/06/25 08:12:07;;;;;;;12.27;11.07;;;25.60;93.40;;;;;;6272527;22;20479;-75
2023/06/25 08:14:32;;;;;;;10.43;9.50;;;25.70;93.10;;;;;;6272944;22;20035;-73
2023/06/25 08:16:58;;;;;;;11.48;10.27;;;25.80;92.90;;;;;;6273195;22;20003;-73
2023/06/25 08:19:23;;;;;;;12.10;10.68;;;25.90;92.90;;;;;;6273077;22;20079;-73
2023/06/25 08:21:49;;;;;;;11.43;10.27;;;26.00;92.90;;;;;;6273431;22;20011;-73
2023/06/25 08:24:15;;;;;;;11.00;9.90;;;26.10;92.50;;;;;;6244968;22;20042;-74
2023/06/25 08:26:40;;;;;;;8.20;7.47;;;26.20;91.90;;;;;;6245941;22;20332;-74
2023/06/25 08:29:06;;;;;;;8.98;8.07;;;26.30;91.50;;;;;;6272590;22;20000;-74
2023/06/25 08:31:31;;;;;;;10.80;9.13;;;26.40;91.10;;;;;;6272186;22;20371;-72
2023/06/25 08:33:57;;;;;;;10.23;8.15;;;26.40;90.50;;;;;;6272270;22;20000;-73
2023/06/25 08:36:23;;;;;;;9.30;8.40;;;26.50;90.40;;;;;;6245332;22;20061;-74
2023/06/25 08:38:48;;;;;;;10.52;9.52;;;26.60;90.30;;;;;;6245515;22;20034;-74
2023/06/25 08:41:14;;;;;;;9.52;8.02;;;26.60;90.10;;;;;;6272818;22;20065;-74
2023/06/25 08:43:40;;;;;;;9.00;8.10;;;26.70;90.10;;;;;;6245839;22;20007;-74
2023/06/25 08:46:07;;;;;;;8.80;7.82;;;26.70;90.00;;;;;;6245067;22;20012;-74
2023/06/25 08:48:35;;;;;;;9.10;7.82;;;26.80;89.70;;;;;;6272617;22;20078;-73
2023/06/25 08:51:08;;;;;;;9.38;8.00;;;26.90;89.20;;;;;;6272391;22;19999;-74
2023/06/25 08:53:34;;;;;;;9.27;7.38;;;27.00;88.90;;;;;;6272173;22;20003;-73
2023/06/25 08:56:02;;;;;;;9.50;8.45;;;27.00;89.20;;;;;;6245066;22;20067;-72
2023/06/25 08:58:29;;;;;;;8.70;7.82;;;27.10;89.20;;;;;;6272202;22;20499;-71
2023/06/25 09:00:55;;;;;;;8.70;7.75;;;27.20;88.60;;;;;;6271701;22;20290;-71
2023/06/25 09:03:20;;;;;;;7.38;6.65;;;27.20;88.30;;;;;;6272157;22;20018;-71
2023/06/25 09:05:55;;;;;;;10.88;7.53;;;27.30;88.60;;;;;;6271601;22;20266;-71
2023/06/25 09:08:26;;;;;;;9.50;8.50;;;27.30;88.10;;;;;;6271000;22;20023;-71
2023/06/25 09:10:53;;;;;;;8.43;7.65;;;27.40;87.90;;;;;;6271541;22;20504;-71
2023/06/25 09:13:27;;;;;;;10.50;7.82;;;27.40;87.20;;;;;;6271446;22;20000;-71
2023/06/25 09:16:03;;;;;;;7.88;7.13;;;27.50;86.50;;;;;;6270899;22;20015;-72
2023/06/25 09:18:29;;;;;;;9.57;7.07;;;27.50;86.60;;;;;;6271029;22;20003;-72
2023/06/25 09:20:55;;;;;;;9.50;7.20;;;27.50;86.70;;;;;;6270409;22;20396;-71
2023/06/25 09:23:22;;;;;;;9.00;8.02;;;27.60;86.40;;;;;;6271502;22;20027;-71
2023/06/25 09:25:50;;;;;;;8.32;7.00;;;27.70;86.10;;;;;;6244124;22;20061;-71
2023/06/25 09:28:16;;;;;;;8.05;7.38;;;27.80;86.80;;;;;;6270547;22;20023;-71
2023/06/25 09:30:42;;;;;;;9.02;6.90;;;27.80;86.40;;;;;;6271244;22;20002;-71
2023/06/25 09:33:09;;;;;;;9.30;7.40;;;27.90;86.10;;;;;;6270974;22;20007;-71
2023/06/25 09:35:35;;;;;;;6.35;5.60;;;28.00;85.70;;;;;;6243598;22;20014;-71
2023/06/25 09:38:02;;;;;;;7.00;6.30;;;28.00;85.00;;;;;;6270866;22;20003;-72
2023/06/25 09:40:28;;;;;;;7.50;6.80;;;28.10;84.80;;;;;;6271018;22;20004;-71
2023/06/25 09:42:56;;;;;;;8.13;7.32;;;28.20;85.50;;;;;;6270601;22;20053;-71
2023/06/25 09:45:22;;;;;;;7.82;6.65;;;28.30;84.60;;;;;;6271172;22;20000;-71
2023/06/25 09:47:49;;;;;;;6.47;5.88;;;28.30;84.20;;;;;;6270845;22;20460;-71
2023/06/25 09:50:18;;;;;;;7.82;6.80;;;28.30;83.50;;;;;;6242840;22;20003;-72
2023/06/25 09:52:55;;;;;;;8.60;6.00;;;28.40;82.90;;;;;;6270956;22;20321;-71
2023/06/25 09:55:21;;;;;;;8.18;7.38;;;28.40;82.80;;;;;;6271358;22;19999;-72
2023/06/25 09:57:48;;;;;;;6.85;6.15;;;28.40;82.50;;;;;;6271235;22;20000;-71
2023/06/25 10:00:16;;;;;;;6.70;6.10;;;28.50;82.00;;;;;;6270504;22;20034;-71
2023/06/25 10:02:42;;;;;;;7.50;6.70;;;28.50;81.60;;;;;;6271173;22;20027;-71
2023/06/25 10:05:07;;;;;;;7.57;6.38;;;28.50;80.90;;;;;;6271235;22;20295;-72
2023/06/25 10:07:34;;;;;;;6.85;6.28;;;28.50;80.60;;;;;;6271518;22;20031;-72
2023/06/25 10:10:00;;;;;;;6.63;5.75;;;28.60;81.40;;;;;;6271792;22;20078;-70
2023/06/25 10:12:25;;;;;;;6.65;6.05;;;28.60;81.40;;;;;;6272089;22;20050;-72
2023/06/25 10:14:52;;;;;;;6.32;5.82;;;28.70;80.20;;;;;;6272146;22;20004;-71
2023/06/25 10:17:20;;;;;;;6.85;6.25;;;28.70;79.80;;;;;;6271040;22;20058;-71
2023/06/25 10:19:54;;;;;;;7.80;6.68;;;28.80;80.40;;;;;;6271351;22;20004;-71
2023/06/25 10:22:22;;;;;;;6.55;5.75;;;28.90;78.60;;;;;;6271930;22;20046;-72
2023/06/25 10:24:50;;;;;;;7.70;6.70;;;28.90;79.40;;;;;;6270796;22;20023;-71
2023/06/25 10:27:20;;;;;;;7.72;6.82;;;28.90;79.40;;;;;;6243946;22;20058;-71
2023/06/25 10:29:49;;;;;;;7.40;6.60;;;29.00;78.90;;;;;;6271932;22;20004;-71
2023/06/25 10:32:19;;;;;;;7.30;5.90;;;29.00;78.30;;;;;;6271242;22;19996;-71
2023/06/25 10:34:55;;;;;;;6.20;5.38;;;29.10;78.30;;;;;;6271303;22;20007;-71
2023/06/25 10:37:21;;;;;;;7.13;6.43;;;29.10;78.10;;;;;;6271595;22;20019;-71
2023/06/25 10:39:46;;;;;;;6.68;5.53;;;29.10;76.70;;;;;;6271117;22;19996;-71
2023/06/25 10:42:13;;;;;;;5.70;5.20;;;29.20;77.10;;;;;;6271237;22;20008;-71
2023/06/25 10:44:39;;;;;;;6.97;5.38;;;29.20;76.50;;;;;;6271376;22;20031;-71
2023/06/25 10:47:06;;;;;;;6.57;5.97;;;29.30;75.40;;;;;;6271125;22;20469;-71
2023/06/25 10:49:32;;;;;;;6.05;5.55;;;29.30;75.00;;;;;;6270780;22;20015;-71
2023/06/25 10:51:59;;;;;;;6.03;5.43;;;29.30;75.30;;;;;;6270395;22;20004;-71
2023/06/25 10:54:24;;;;;;;5.68;5.18;;;29.40;75.30;;;;;;6271389;22;20000;-71
2023/06/25 10:57:06;;;;;;;5.25;4.75;;;29.40;75.20;;;;;;6271828;22;20390;-71
2023/06/25 10:59:31;;;;;;;8.10;5.82;;;29.50;74.80;;;;;;6271137;22;20007;-71
2023/06/25 11:02:10;;;;;;;7.75;6.95;;;29.50;74.10;;;;;;6271217;22;20008;-71
2023/06/25 11:04:35;;;;;;;6.82;6.25;;;29.50;73.90;;;;;;6271799;22;20007;-71
2023/06/25 11:07:01;;;;;;;6.70;6.07;;;29.50;73.90;;;;;;6245356;22;20077;-71
2023/06/25 11:09:28;;;;;;;8.80;5.95;;;29.60;73.80;;;;;;6273488;22;19995;-71
2023/06/25 11:11:53;;;;;;;8.50;5.75;;;29.60;73.00;;;;;;6273389;22;20004;-71
2023/06/25 11:14:19;;;;;;;5.72;4.68;;;29.70;72.50;;;;;;6273011;22;20310;-72
2023/06/25 11:16:47;;;;;;;6.47;5.88;;;29.70;72.60;;;;;;6273314;22;20004;-72
2023/06/25 11:19:13;;;;;;;5.72;4.70;;;29.70;72.30;;;;;;6272454;22;20008;-71
2023/06/25 11:21:39;;;;;;;6.45;5.85;;;29.70;72.30;;;;;;6273207;22;20008;-71
2023/06/25 11:24:08;;;;;;;5.50;4.95;;;29.80;71.90;;;;;;6245335;22;20417;-72
2023/06/25 11:26:42;;;;;;;6.35;5.78;;;29.80;72.10;;;;;;6273237;22;20011;-71
2023/06/25 11:29:11;;;;;;;5.20;4.80;;;29.80;71.60;;;;;;6271589;22;20012;-71
2023/06/25 11:31:44;;;;;;;5.45;4.75;;;29.80;72.00;;;;;;6270951;22;20004;-71
2023/06/25 11:34:25;;;;;;;6.28;5.57;;;29.90;71.70;;;;;;6270828;22;20000;-70
2023/06/25 11:36:51;;;;;;;6.03;5.40;;;29.90;71.70;;;;;;6272264;22;20417;-73
2023/06/25 11:39:17;;;;;;;5.50;5.00;;;29.90;71.50;;;;;;6272393;22;20000;-71
2023/06/25 11:41:44;;;;;;;8.63;5.97;;;29.90;70.90;;;;;;6273481;22;20034;-71
2023/06/25 11:44:20;;;;;;;5.78;5.10;;;29.90;70.60;;;;;;6272918;22;20003;-70
2023/06/25 11:46:52;;;;;;;7.35;4.93;;;29.90;70.90;;;;;;6272554;22;20000;-71
2023/06/25 11:49:23;;;;;;;6.35;5.72;;;29.90;70.80;;;;;;6245406;22;20007;-70
2023/06/25 11:51:52;;;;;;;5.03;4.50;;;30.00;70.30;;;;;;6272537;22;20429;-71
2023/06/25 11:54:18;;;;;;;5.93;5.43;;;30.00;69.90;;;;;;6273187;22;20000;-71
2023/06/25 11:56:43;;;;;;;6.30;4.90;;;30.00;69.20;;;;;;6273237;22;20439;-71
2023/06/25 11:59:09;;;;;;;7.50;4.82;;;30.00;69.40;;;;;;6272464;22;20361;-71
2023/06/25 12:01:35;;;;;;;6.38;5.22;;;30.00;69.50;;;;;;6244615;22;20102;-71
2023/06/25 12:04:00;;;;;;;7.60;5.38;;;30.00;69.10;;;;;;6272678;22;20000;-70
2023/06/25 12:06:26;;;;;;;5.53;5.03;;;30.10;69.40;;;;;;6272421;22;20019;-71
2023/06/25 12:08:51;;;;;;;6.88;5.50;;;30.10;69.80;;;;;;6273097;22;20070;-70
2023/06/25 12:11:17;;;;;;;6.13;5.53;;;30.10;69.60;;;;;;6245231;22;20004;-71
2023/06/25 12:13:43;;;;;;;5.88;5.25;;;30.10;69.60;;;;;;6272618;22;20007;-70
2023/06/25 12:16:09;;;;;;;5.57;5.07;;;30.20;69.10;;;;;;6271607;22;20077;-71
2023/06/25 12:18:34;;;;;;;5.50;5.00;;;30.20;68.50;;;;;;6245686;22;20008;-71
2023/06/25 12:21:00;;;;;;;7.40;4.63;;;30.30;68.90;;;;;;6272025;22;20452;-71
2023/06/25 12:23:25;;;;;;;5.20;4.80;;;30.30;68.50;;;;;;6272635;22;20027;-70
2023/06/25 12:25:51;;;;;;;5.88;4.82;;;30.30;68.50;;;;;;6272578;22;20004;-71
2023/06/25 12:28:16;;;;;;;5.72;5.22;;;30.30;68.00;;;;;;6272100;22;20007;-71
2023/06/25 12:30:42;;;;;;;6.07;5.50;;;30.30;67.90;;;;;;6245113;22;20038;-71